createdAt,value
2023-06-13T00:01:41.281Z,23.60
2023-06-13T00:04:09.935Z,23.60
2023-06-13T00:06:38.712Z,23.50
2023-06-13T00:09:07.525Z,23.40
2023-06-13T00:11:35.611Z,23.40
2023-06-13T00:14:05.257Z,23.30
2023-06-13T00:16:33.549Z,23.30
2023-06-13T00:19:02.875Z,23.20
2023-06-13T00:21:30.967Z,23.20
2023-06-13T00:23:59.201Z,23.20
2023-06-13T00:26:27.302Z,23.10
2023-06-13T00:28:55.296Z,23.10
2023-06-13T00:31:25.805Z,22.90
2023-06-13T00:33:53.791Z,23.00
2023-06-13T00:36:21.917Z,23.10
2023-06-13T00:38:50.360Z,23.00
2023-06-13T00:41:18.416Z,23.00
2023-06-13T00:43:47.003Z,22.90
2023-06-13T00:46:15.957Z,23.00
2023-06-13T00:48:46.542Z,22.90
2023-06-13T00:51:15.903Z,22.90
2023-06-13T00:53:44.786Z,22.80
2023-06-13T00:56:12.796Z,22.80
2023-06-13T00:58:41.110Z,22.80
2023-06-13T01:01:11.313Z,23.00
2023-06-13T01:03:40.320Z,22.90
2023-06-13T01:06:11.767Z,22.80
2023-06-13T01:08:42.012Z,22.80
2023-06-13T01:11:15.662Z,22.80
2023-06-13T01:13:49.376Z,22.70
2023-06-13T01:16:23.859Z,22.80
2023-06-13T01:18:54.155Z,22.70
2023-06-13T01:21:25.899Z,22.70
2023-06-13T01:24:03.446Z,22.70
2023-06-13T01:26:48.855Z,22.60
2023-06-13T01:29:18.854Z,22.60
2023-06-13T01:31:49.847Z,22.70
2023-06-13T01:34:18.840Z,22.60
2023-06-13T01:36:47.762Z,22.70
2023-06-13T01:39:15.860Z,22.50
2023-06-13T01:41:45.458Z,22.50
2023-06-13T01:44:19.048Z,22.40
2023-06-13T01:46:53.723Z,22.40
2023-06-13T01:49:30.301Z,22.30
2023-06-13T01:52:05.806Z,22.20
2023-06-13T01:54:37.854Z,22.00
2023-06-13T01:57:11.349Z,21.90
2023-06-13T01:59:40.989Z,21.80
2023-06-13T02:02:09.330Z,21.80
2023-06-13T02:04:42.201Z,21.70
2023-06-13T02:07:11.581Z,21.70
2023-06-13T02:09:39.918Z,21.60
2023-06-13T02:12:11.590Z,21.50
2023-06-13T02:14:40.568Z,21.50
2023-06-13T02:17:08.917Z,21.50
2023-06-13T02:19:37.395Z,21.60
2023-06-13T02:22:06.159Z,21.40
2023-06-13T02:24:34.249Z,21.30
2023-06-13T02:27:03.190Z,21.10
2023-06-13T02:29:35.073Z,21.10
2023-06-13T02:32:03.401Z,21.00
2023-06-13T02:34:31.465Z,21.00
2023-06-13T02:36:59.648Z,20.80
2023-06-13T02:39:27.796Z,20.70
2023-06-13T02:41:58.868Z,20.50
2023-06-13T02:44:27.008Z,20.50
2023-06-13T02:46:56.441Z,20.40
2023-06-13T02:49:24.846Z,20.30
2023-06-13T02:51:52.817Z,20.30
2023-06-13T02:54:20.990Z,20.20
2023-06-13T02:56:49.070Z,20.10
2023-06-13T02:59:18.128Z,20.10
2023-06-13T03:01:46.158Z,20.00
2023-06-13T03:04:19.565Z,20.00
2023-06-13T03:06:47.677Z,19.90
2023-06-13T03:09:15.963Z,19.90
2023-06-13T03:11:44.103Z,19.90
2023-06-13T03:14:12.345Z,19.80
2023-06-13T03:16:41.865Z,19.80
2023-06-13T03:19:09.994Z,19.70
2023-06-13T03:21:40.247Z,19.70
2023-06-13T03:24:08.526Z,19.70
2023-06-13T03:26:39.476Z,19.70
2023-06-13T03:29:09.032Z,19.60
2023-06-13T03:31:40.172Z,19.50
2023-06-13T03:34:08.242Z,19.60
2023-06-13T03:36:38.665Z,19.50
2023-06-13T03:39:08.245Z,19.30
2023-06-13T03:41:36.474Z,19.40
2023-06-13T03:44:04.640Z,19.20
2023-06-13T03:46:32.697Z,19.10
2023-06-13T03:49:00.965Z,19.10
2023-06-13T03:51:29.330Z,19.00
2023-06-13T03:53:57.446Z,19.00
2023-06-13T03:56:27.838Z,19.00
2023-06-13T03:58:55.910Z,19.00
2023-06-13T04:01:25.597Z,18.90
2023-06-13T04:03:54.073Z,18.80
2023-06-13T04:06:22.392Z,18.80
2023-06-13T04:08:50.528Z,18.90
2023-06-13T04:11:18.642Z,18.80
2023-06-13T04:13:48.107Z,18.80
2023-06-13T04:16:16.314Z,18.70
2023-06-13T04:18:45.547Z,18.70
2023-06-13T04:21:13.928Z,18.80
2023-06-13T04:23:42.558Z,18.60
2023-06-13T04:26:10.558Z,18.70
2023-06-13T04:28:38.664Z,18.80
2023-06-13T04:31:08.311Z,18.60
2023-06-13T04:33:38.540Z,18.70
2023-06-13T04:36:07.274Z,18.70
2023-06-13T04:38:39.056Z,18.70
2023-06-13T04:41:11.327Z,18.80
2023-06-13T04:43:40.160Z,18.80
2023-06-13T04:46:10.568Z,19.00
2023-06-13T04:48:39.121Z,19.10
2023-06-13T04:51:10.467Z,19.20
2023-06-13T04:53:41.541Z,19.30
2023-06-13T04:56:33.946Z,19.40
2023-06-13T04:59:02.027Z,19.40
2023-06-13T05:01:33.860Z,19.50
2023-06-13T05:04:03.095Z,19.50
2023-06-13T05:06:31.525Z,19.60
2023-06-13T05:08:59.804Z,19.70
2023-06-13T05:11:27.809Z,19.70
2023-06-13T05:13:55.956Z,20.00
2023-06-13T05:16:31.344Z,20.00
2023-06-13T05:19:01.449Z,20.30
2023-06-13T05:21:30.102Z,20.30
2023-06-13T05:23:59.716Z,20.50
2023-06-13T05:26:29.110Z,20.70
2023-06-13T05:28:58.640Z,20.80
2023-06-13T05:31:27.336Z,20.90
2023-06-13T05:33:55.452Z,20.90
2023-06-13T05:36:24.948Z,21.00
2023-06-13T05:38:53.095Z,21.10
2023-06-13T05:41:21.171Z,21.30
2023-06-13T05:43:49.280Z,21.40
2023-06-13T05:46:17.281Z,21.20
2023-06-13T05:48:45.905Z,21.50
2023-06-13T05:51:14.075Z,21.50
2023-06-13T05:53:43.715Z,21.50
2023-06-13T05:56:11.784Z,21.50
2023-06-13T05:58:39.961Z,21.50
2023-06-13T06:01:08.077Z,21.60
2023-06-13T06:03:36.474Z,21.60
2023-06-13T06:06:04.730Z,21.70
2023-06-13T06:08:32.846Z,21.70
2023-06-13T06:11:02.781Z,21.70
2023-06-13T06:13:30.874Z,21.80
2023-06-13T06:15:59.939Z,21.90
2023-06-13T06:18:28.029Z,22.00
2023-06-13T06:20:56.193Z,22.00
2023-06-13T06:23:24.503Z,22.10
2023-06-13T06:25:52.539Z,22.10
2023-06-13T06:28:22.016Z,22.20
2023-06-13T06:30:50.070Z,22.30
2023-06-13T06:33:18.150Z,22.50
2023-06-13T06:35:46.408Z,22.70
2023-06-13T06:38:15.030Z,22.80
2023-06-13T06:40:43.117Z,23.00
2023-06-13T06:43:11.277Z,23.10
2023-06-13T06:45:40.883Z,23.20
2023-06-13T06:48:09.197Z,23.30
2023-06-13T06:50:37.581Z,23.40
2023-06-13T06:53:05.828Z,23.50
2023-06-13T06:55:34.030Z,23.60
2023-06-13T06:58:02.488Z,23.70
2023-06-13T07:00:30.634Z,24.00
2023-06-13T07:03:01.074Z,23.90
2023-06-13T07:05:29.213Z,24.10
2023-06-13T07:07:57.532Z,24.20
2023-06-13T07:10:26.465Z,24.20
2023-06-13T07:12:54.555Z,24.20
2023-06-13T07:15:23.448Z,24.10
2023-06-13T07:17:51.895Z,24.30
2023-06-13T07:20:22.517Z,24.30
2023-06-13T07:22:51.265Z,24.60
2023-06-13T07:25:19.338Z,24.50
2023-06-13T07:27:47.389Z,24.60
2023-06-13T07:30:15.749Z,24.50
2023-06-13T07:32:44.194Z,24.70
2023-06-13T07:35:13.600Z,24.70
2023-06-13T07:37:43.433Z,24.80
2023-06-13T07:40:13.173Z,24.90
2023-06-13T07:42:41.656Z,25.00
2023-06-13T07:45:10.167Z,25.10
2023-06-13T07:47:38.330Z,25.20
2023-06-13T07:50:07.705Z,25.30
2023-06-13T07:52:36.299Z,25.40
2023-06-13T07:55:06.343Z,25.50
2023-06-13T08:00:14.525Z,25.60
2023-06-13T08:02:43.038Z,25.70
2023-06-13T08:05:12.042Z,25.80
2023-06-13T08:07:40.955Z,25.90
2023-06-13T08:10:10.986Z,25.80
2023-06-13T08:12:39.842Z,26.10
2023-06-13T08:15:09.364Z,26.10
2023-06-13T08:17:43.633Z,26.20
2023-06-13T08:20:12.893Z,26.20
2023-06-13T08:22:42.471Z,26.20
2023-06-13T08:25:13.493Z,26.30
2023-06-13T08:27:43.527Z,26.40
2023-06-13T08:30:13.873Z,26.70
2023-06-13T08:32:43.212Z,26.50
2023-06-13T08:35:11.819Z,26.40
2023-06-13T08:37:41.437Z,26.50
2023-06-13T08:40:14.273Z,26.50
2023-06-13T08:42:44.105Z,26.60
2023-06-13T08:45:12.682Z,26.50
2023-06-13T08:47:47.869Z,26.70
2023-06-13T08:50:19.365Z,26.70
2023-06-13T08:52:49.349Z,26.80
2023-06-13T08:57:56.888Z,27.00
2023-06-13T09:00:25.099Z,27.10
2023-06-13T09:02:54.565Z,27.10
2023-06-13T09:05:24.773Z,27.20
2023-06-13T09:07:59.414Z,27.10
2023-06-13T09:10:38.666Z,27.20
2023-06-13T09:13:08.385Z,27.40
2023-06-13T09:15:38.055Z,27.40
2023-06-13T09:18:06.335Z,27.60
2023-06-13T09:20:34.585Z,27.50
2023-06-13T09:23:02.914Z,27.60
2023-06-13T09:25:32.767Z,27.80
2023-06-13T09:28:31.782Z,27.80
2023-06-13T09:30:59.876Z,27.80
2023-06-13T09:33:28.087Z,27.80
2023-06-13T09:35:57.302Z,27.90
2023-06-13T09:38:27.960Z,28.00
2023-06-13T09:40:57.612Z,28.00
2023-06-13T09:43:28.602Z,28.20
2023-06-13T09:45:57.252Z,28.10
2023-06-13T09:48:25.839Z,28.20
2023-06-13T09:50:55.356Z,28.20
2023-06-13T09:53:23.542Z,28.50
2023-06-13T09:55:51.841Z,28.70
2023-06-13T10:00:58.382Z,28.80
2023-06-13T10:03:27.390Z,28.90
2023-06-13T10:05:57.932Z,29.00
2023-06-13T10:08:26.953Z,29.10
2023-06-13T10:10:55.620Z,29.00
2023-06-13T10:13:28.001Z,29.30
2023-06-13T10:16:00.986Z,29.40
2023-06-13T10:18:33.507Z,29.40
2023-06-13T10:21:03.742Z,29.30
2023-06-13T10:23:36.341Z,29.40
2023-06-13T10:26:10.514Z,29.20
2023-06-13T10:28:55.796Z,29.20
2023-06-13T10:31:32.142Z,29.30
2023-06-13T10:34:22.097Z,29.20
2023-06-13T10:39:50.220Z,29.40
2023-06-13T10:42:33.854Z,29.50
2023-06-13T10:45:05.563Z,29.60
2023-06-13T10:47:35.895Z,29.80
2023-06-13T10:50:06.139Z,29.90
2023-06-13T10:52:34.068Z,29.80
2023-06-13T10:55:03.167Z,29.70
2023-06-13T10:57:48.954Z,29.70
2023-06-13T11:00:26.244Z,29.90
2023-06-13T11:03:01.972Z,30.00
2023-06-13T11:05:41.664Z,30.00
2023-06-13T11:08:15.992Z,30.10
2023-06-13T11:10:44.750Z,30.00
2023-06-13T11:13:18.567Z,29.90
2023-06-13T11:15:46.739Z,29.90
2023-06-13T11:18:36.488Z,29.90
2023-06-13T11:21:05.389Z,29.80
2023-06-13T11:23:47.145Z,29.70
2023-06-13T11:26:20.433Z,30.10
2023-06-13T11:28:49.867Z,30.10
2023-06-13T11:31:19.365Z,30.30
2023-06-13T11:33:50.995Z,30.40
2023-06-13T11:36:21.710Z,30.40
2023-06-13T11:38:59.818Z,30.50
2023-06-13T11:41:29.079Z,30.50
2023-06-13T11:43:58.247Z,30.70
2023-06-13T11:46:26.549Z,30.60
2023-06-13T11:49:00.161Z,30.60
2023-06-13T11:51:31.427Z,30.60
2023-06-13T11:54:02.417Z,30.50
2023-06-13T11:56:35.817Z,30.50
2023-06-13T11:59:16.318Z,30.50
2023-06-13T12:01:44.552Z,30.70
2023-06-13T12:04:15.896Z,30.60
2023-06-13T12:06:44.277Z,30.60
2023-06-13T12:09:12.645Z,30.70
2023-06-13T12:11:40.677Z,30.90
2023-06-13T12:14:08.702Z,30.90
2023-06-13T12:16:38.385Z,30.90
2023-06-13T12:19:07.898Z,30.80
2023-06-13T12:21:39.167Z,31.10
2023-06-13T12:24:10.419Z,31.30
2023-06-13T12:26:42.752Z,31.30
2023-06-13T12:29:13.300Z,31.40
2023-06-13T12:31:44.646Z,31.50
2023-06-13T12:34:17.452Z,31.50
2023-06-13T12:36:49.313Z,31.50
2023-06-13T12:39:19.079Z,31.70
2023-06-13T12:41:49.312Z,31.60
2023-06-13T12:44:18.328Z,31.70
2023-06-13T12:46:47.387Z,31.60
2023-06-13T12:49:17.302Z,31.70
2023-06-13T12:51:48.527Z,31.50
2023-06-13T12:54:17.851Z,31.40
2023-06-13T12:56:53.861Z,31.40
2023-06-13T12:59:31.945Z,31.50
2023-06-13T13:02:00.801Z,31.30
2023-06-13T13:04:33.879Z,31.40
2023-06-13T13:07:04.900Z,31.40
2023-06-13T13:09:33.564Z,31.40
2023-06-13T13:12:02.146Z,31.70
2023-06-13T13:14:31.237Z,31.70
2023-06-13T13:16:59.309Z,31.70
2023-06-13T13:19:27.285Z,31.70
2023-06-13T13:21:55.712Z,31.70
2023-06-13T13:24:27.013Z,31.50
2023-06-13T13:26:56.557Z,31.60
2023-06-13T13:29:26.119Z,31.70
2023-06-13T13:31:54.554Z,31.60
2023-06-13T13:34:25.774Z,31.70
2023-06-13T13:36:54.254Z,31.70
2023-06-13T13:39:22.648Z,31.50
2023-06-13T13:41:52.337Z,31.70
2023-06-13T13:44:20.411Z,31.60
2023-06-13T13:46:48.519Z,31.50
2023-06-13T13:49:16.927Z,31.50
2023-06-13T13:51:48.544Z,31.50
2023-06-13T13:54:16.636Z,31.50
2023-06-13T13:56:45.305Z,31.60
2023-06-13T13:59:17.152Z,31.40
2023-06-13T14:01:45.353Z,31.30
2023-06-13T14:04:16.435Z,31.20
2023-06-13T14:06:44.606Z,31.10
2023-06-13T14:09:14.331Z,31.00
2023-06-13T14:11:42.331Z,30.90
2023-06-13T14:14:10.809Z,30.70
2023-06-13T14:16:40.543Z,30.40
2023-06-13T14:19:08.618Z,30.40
2023-06-13T14:21:36.755Z,30.50
2023-06-13T14:24:05.304Z,30.40
2023-06-13T14:26:33.530Z,30.30
2023-06-13T14:29:01.758Z,30.30
2023-06-13T14:31:29.866Z,30.40
2023-06-13T14:33:59.814Z,30.50
2023-06-13T14:36:27.930Z,30.40
2023-06-13T14:38:56.081Z,30.30
2023-06-13T14:41:24.553Z,30.10
2023-06-13T14:43:59.300Z,30.00
2023-06-13T14:46:27.449Z,30.10
2023-06-13T14:48:55.647Z,30.00
2023-06-13T14:51:25.168Z,29.90
2023-06-13T14:53:53.303Z,29.90
2023-06-13T14:56:21.515Z,30.00
2023-06-13T14:58:50.197Z,30.10
2023-06-13T15:01:18.414Z,30.30
2023-06-13T15:03:47.817Z,30.20
2023-06-13T15:06:17.886Z,30.10
2023-06-13T15:08:47.909Z,30.10
2023-06-13T15:11:16.067Z,30.10
2023-06-13T15:13:44.260Z,30.20
2023-06-13T15:16:13.094Z,30.20
2023-06-13T15:18:42.987Z,30.20
2023-06-13T15:21:11.225Z,30.10
2023-06-13T15:23:39.443Z,30.00
2023-06-13T15:26:09.328Z,29.90
2023-06-13T15:28:37.763Z,30.10
2023-06-13T15:31:05.807Z,30.30
2023-06-13T15:33:34.485Z,30.20
2023-06-13T15:36:04.260Z,30.30
2023-06-13T15:38:33.134Z,30.30
2023-06-13T15:41:01.921Z,30.40
2023-06-13T15:43:31.802Z,30.30
2023-06-13T15:45:59.887Z,30.40
2023-06-13T15:48:27.994Z,30.30
2023-06-13T15:50:56.420Z,30.10
2023-06-13T15:53:24.511Z,30.10
2023-06-13T15:55:52.527Z,30.00
2023-06-13T15:58:20.802Z,29.80
2023-06-13T16:00:50.608Z,29.90
2023-06-13T16:03:18.772Z,29.90
2023-06-13T16:05:46.874Z,29.80
2023-06-13T16:08:15.003Z,29.90
2023-06-13T16:10:43.028Z,30.00
2023-06-13T16:13:11.321Z,29.90
2023-06-13T16:15:39.718Z,30.00
2023-06-13T16:18:09.457Z,30.10
2023-06-13T16:20:37.702Z,30.20
2023-06-13T16:23:05.840Z,30.10
2023-06-13T16:25:48.789Z,30.10
2023-06-13T16:28:24.765Z,30.00
2023-06-13T16:30:58.009Z,30.00
2023-06-13T16:33:27.711Z,30.00
2023-06-13T16:35:55.974Z,30.00
2023-06-13T16:38:25.347Z,29.90
2023-06-13T16:40:53.343Z,30.00
2023-06-13T16:43:21.360Z,29.90
2023-06-13T16:45:49.330Z,30.00
2023-06-13T16:48:17.372Z,29.80
2023-06-13T16:50:46.811Z,29.80
2023-06-13T16:53:14.783Z,29.80
2023-06-13T16:55:43.032Z,29.90
2023-06-13T16:58:11.451Z,30.00
2023-06-13T17:00:40.540Z,29.90
2023-06-13T17:03:09.136Z,30.00
2023-06-13T17:05:37.549Z,29.90
2023-06-13T17:08:07.284Z,30.10
2023-06-13T17:10:35.285Z,29.90
2023-06-13T17:13:05.319Z,29.80
2023-06-13T17:15:33.544Z,29.80
2023-06-13T17:18:01.664Z,29.90
2023-06-13T17:20:29.688Z,29.80
2023-06-13T17:22:57.766Z,29.80
2023-06-13T17:25:27.424Z,29.60
2023-06-13T17:27:55.755Z,29.60
2023-06-13T17:30:24.126Z,29.50
2023-06-13T17:32:54.407Z,29.40
2023-06-13T17:35:24.443Z,29.50
2023-06-13T17:37:53.064Z,29.50
2023-06-13T17:40:21.223Z,29.30
2023-06-13T17:42:50.595Z,29.30
2023-06-13T17:45:18.695Z,29.10
2023-06-13T17:47:46.823Z,29.10
2023-06-13T17:50:15.037Z,29.00
2023-06-13T17:52:43.231Z,29.00
2023-06-13T17:55:12.585Z,29.10
2023-06-13T17:57:40.997Z,29.20
2023-06-13T18:00:12.109Z,29.20
2023-06-13T18:02:40.779Z,29.20
2023-06-13T18:05:09.154Z,29.10
2023-06-13T18:07:37.517Z,29.00
2023-06-13T18:10:06.236Z,28.90
2023-06-13T18:12:34.390Z,28.90
2023-06-13T18:15:02.385Z,28.80
2023-06-13T18:17:31.994Z,28.70
2023-06-13T18:20:00.062Z,28.70
2023-06-13T18:22:29.172Z,28.50
2023-06-13T18:24:57.250Z,28.30
2023-06-13T18:27:26.031Z,28.20
2023-06-13T18:29:54.059Z,27.90
2023-06-13T18:32:22.164Z,27.80
2023-06-13T18:34:51.782Z,27.80
2023-06-13T18:37:20.783Z,27.70
2023-06-13T18:39:49.017Z,27.60
2023-06-13T18:42:18.008Z,27.40
2023-06-13T18:44:47.319Z,27.50
2023-06-13T18:47:15.952Z,27.40
2023-06-13T18:49:44.237Z,27.40
2023-06-13T18:52:13.810Z,27.30
2023-06-13T18:54:42.077Z,27.30
2023-06-13T18:57:10.562Z,27.30
2023-06-13T18:59:40.235Z,27.20
2023-06-13T19:02:08.832Z,27.00
2023-06-13T19:04:38.663Z,26.80
2023-06-13T19:07:08.657Z,26.70
2023-06-13T19:09:38.481Z,26.70
2023-06-13T19:12:08.285Z,26.60
2023-06-13T19:14:38.940Z,26.50
2023-06-13T19:17:07.819Z,26.10
2023-06-13T19:19:37.961Z,26.10
2023-06-13T19:22:08.361Z,26.10
2023-06-13T19:24:39.075Z,25.90
2023-06-13T19:27:09.599Z,25.80
2023-06-13T19:29:40.465Z,25.70
2023-06-13T19:35:25.886Z,25.60
2023-06-13T19:37:54.345Z,25.60
2023-06-13T19:40:24.205Z,25.30
2023-06-13T19:42:53.191Z,25.30
2023-06-13T19:45:25.233Z,25.10
2023-06-13T19:47:54.643Z,24.90
2023-06-13T19:50:24.325Z,24.90
2023-06-13T19:52:53.437Z,24.80
2023-06-13T19:55:24.592Z,24.70
2023-06-13T19:57:54.093Z,24.60
2023-06-13T20:00:23.318Z,24.60
2023-06-13T20:02:54.260Z,24.50
2023-06-13T20:05:23.386Z,24.40
2023-06-13T20:07:51.707Z,24.40
2023-06-13T20:10:20.335Z,24.30
2023-06-13T20:12:50.604Z,24.20
2023-06-13T20:15:18.976Z,24.20
2023-06-13T20:17:47.320Z,24.00
2023-06-13T20:20:16.021Z,24.00
2023-06-13T20:22:45.859Z,24.00
2023-06-13T20:25:14.423Z,24.00
2023-06-13T20:27:42.780Z,23.90
2023-06-13T20:30:13.564Z,23.80
2023-06-13T20:32:42.058Z,23.80
2023-06-13T20:35:10.752Z,23.80
2023-06-13T20:37:38.766Z,23.80
2023-06-13T20:40:11.586Z,23.70
2023-06-13T20:42:41.923Z,23.70
2023-06-13T20:45:12.503Z,23.70
2023-06-13T20:47:41.158Z,23.60
2023-06-13T20:50:10.752Z,23.60
2023-06-13T20:52:40.112Z,23.50
2023-06-13T20:55:10.159Z,23.50
2023-06-13T20:57:38.878Z,23.50
2023-06-13T21:00:15.725Z,23.50
2023-06-13T21:02:46.219Z,23.40
2023-06-13T21:05:14.671Z,23.40
2023-06-13T21:07:42.727Z,23.40
2023-06-13T21:10:11.458Z,23.40
2023-06-13T21:12:42.001Z,23.40
2023-06-13T21:15:16.459Z,23.20
2023-06-13T21:17:46.166Z,23.20
2023-06-13T21:20:15.598Z,23.00
2023-06-13T21:22:44.552Z,23.10
2023-06-13T21:25:14.702Z,23.30
2023-06-13T21:27:43.423Z,23.10
2023-06-13T21:30:13.689Z,23.10
2023-06-13T21:32:42.430Z,23.00
2023-06-13T21:35:12.941Z,23.10
2023-06-13T21:37:42.387Z,23.00
2023-06-13T21:40:11.128Z,22.90
2023-06-13T21:42:39.478Z,22.90
2023-06-13T21:45:08.768Z,22.90
2023-06-13T21:47:37.189Z,22.80
2023-06-13T21:50:09.033Z,22.80
2023-06-13T21:52:38.942Z,22.70
2023-06-13T21:55:10.856Z,22.80
2023-06-13T21:57:39.379Z,22.60
2023-06-13T22:00:16.558Z,22.60
2023-06-13T22:02:46.851Z,22.50
2023-06-13T22:05:15.755Z,22.40
2023-06-13T22:07:46.091Z,22.40
2023-06-13T22:10:15.763Z,22.20
2023-06-13T22:12:47.350Z,22.40
2023-06-13T22:15:15.789Z,22.30
2023-06-13T22:17:45.455Z,22.30
2023-06-13T22:20:23.140Z,22.30
2023-06-13T22:22:54.692Z,22.30
2023-06-13T22:25:24.600Z,22.40
2023-06-13T22:27:54.378Z,22.20
2023-06-13T22:30:22.994Z,22.20
2023-06-13T22:32:52.056Z,22.30
2023-06-13T22:35:21.219Z,22.10
2023-06-13T22:37:50.002Z,22.10
2023-06-13T22:40:20.180Z,22.20
2023-06-13T22:42:48.552Z,22.00
2023-06-13T22:45:16.724Z,22.00
2023-06-13T22:47:46.181Z,22.00
2023-06-13T22:50:15.862Z,22.00
2023-06-13T22:52:44.373Z,21.90
2023-06-13T22:55:12.570Z,21.90
2023-06-13T22:57:42.862Z,21.90
2023-06-13T23:00:15.154Z,21.80
2023-06-13T23:02:43.823Z,21.80
2023-06-13T23:05:12.374Z,21.80
2023-06-13T23:07:40.563Z,21.70
2023-06-13T23:10:09.550Z,21.70
2023-06-13T23:12:37.680Z,21.70
2023-06-13T23:15:08.297Z,21.70
2023-06-13T23:17:36.626Z,21.60
2023-06-13T23:20:06.753Z,21.60
2023-06-13T23:22:35.258Z,21.60
2023-06-13T23:25:04.763Z,21.50
2023-06-13T23:27:34.062Z,21.50
2023-06-13T23:30:05.732Z,21.60
2023-06-13T23:32:38.200Z,21.50
2023-06-13T23:35:09.172Z,21.40
2023-06-13T23:37:37.812Z,21.30
2023-06-13T23:40:07.886Z,21.30
2023-06-13T23:42:36.340Z,21.20
2023-06-13T23:45:04.570Z,21.20
2023-06-13T23:47:34.083Z,21.10
2023-06-13T23:50:02.494Z,21.00
2023-06-13T23:52:30.942Z,21.00
2023-06-13T23:54:59.187Z,21.20
2023-06-13T23:57:27.248Z,21.00
2023-06-13T23:59:55.443Z,20.90
